• Join FlightAware (Why Join?)
  • Login
  • US Flag 
02:10AM EDT


 

Airport Tracker/Info


-or-


 

Live Flight TrackerFlight Track Log ✈ BJS542 ✈ 26-Jun-2013 ✈ KBED - KTEB

Flight Track Log - Related Links

Times and Time Zones

All times are in EDT time to prevent confusion due to time zone crossing. See the BJS542 flight status page for this flight to view local times or setup timezone preferences in your user account.

Time Position Orientation Groundspeed Altitude Reporting Facility
EDT Latitude Longitude Course Direction KTS MPH feet Rate Location/Type
07:45AM 42.4667 -71.3167 235° Southwest 187 215 1,200  Level KA90
07:48AM 42.3736 -71.4931 235° Southwest 260 299 8,900 3,120 Climbing Boston Center
07:49AM 42.3578 -71.6000 259° West 260 299 12,500 2,400 Climbing Boston Center
07:50AM 42.3522 -71.7042 266° West 303 349 13,700 1,140 Climbing Boston Center
07:51AM 42.3383 -71.8419 262° West 335 386 14,800 1,020 Climbing Boston Center
07:52AM 42.3119 -71.9683 254° West 342 394 15,800 600 Climbing Boston Center
07:53AM 42.2894 -72.0864 256° West 357 411 16,100 60 Climbing Boston Center
07:54AM 42.2628 -72.2269 256° West 363 418 16,000 -60 Descending Boston Center
07:55AM 42.2378 -72.3447 254° West 363 418 16,000  Level Boston Center
07:56AM 42.2108 -72.4850 256° West 358 412 16,000  Level Boston Center
07:57AM 42.1878 -72.5969 255° West 358 412 16,000  Level Boston Center
07:58AM 42.1625 -72.7231 255° West 358 412 16,100  Climbing Boston Center
07:59AM 42.1328 -72.8628 254° West 358 412 16,000  Descending Boston Center
08:00AM 42.1094 -72.9775 255° West 358 412 16,100  Climbing Boston Center
08:01AM 42.0775 -73.1197 253° West 358 412 16,000 -60 Descending Boston Center
08:02AM 42.0536 -73.2342 254° West 358 412 16,000 -60 Level Boston Center
08:03AM 42.0214 -73.3678 252° West 358 412 15,900  Descending Boston Center
08:04AM 41.9975 -73.4708 253° West 337 388 16,000  Climbing Boston Center
08:05AM 41.9547 -73.6042 247° West 347 399 16,000  Level Boston Center
08:06AM 41.9181 -73.7122 246° West 352 405 16,000  Level Boston Center
08:07AM 41.8706 -73.8481 245° Southwest 359 413 16,000  Level Boston Center
08:08AM 41.8336 -73.9586 246° West 359 413 16,000 -840 Level Boston Center
08:09AM 41.7883 -74.0856 244° Southwest 359 413 14,400 -1,620 Descending Boston Center
08:10AM 41.7489 -74.1986 245° Southwest 354 407 12,800 -1,500 Descending Boston Center
08:11AM 41.7119 -74.3033 245° Southwest 354 407 11,400 -1,500 Descending Boston Center
08:12AM 41.6744 -74.4133 245° Southwest 319 367 9,900 -1,380 Descending Boston Center
08:13AM 41.6461 -74.4903 244° Southwest 277 319 8,700 -1,200 Descending Boston Center
08:14AM 41.5886 -74.5578 221° Southwest 248 285 7,600 -1,020 Descending Boston Center
08:15AM 41.5197 -74.5694 187° South 259 298 6,700 -480 Descending Boston Center
08:17AM 41.3500 -74.5667 179° South 296 341 6,100 -600 Descending New York TRACON
08:18AM 41.2667 -74.5333 163° South 289 333 4,900 -960 Descending New York TRACON
08:19AM 41.2000 -74.4667 143° Southeast 307 353 4,100 -420 Descending New York TRACON
08:20AM 41.1667 -74.3667 114° Southeast 307 353 4,100 -360 Level New York TRACON
08:21AM 41.1167 -74.2667 124° Southeast 302 348 3,400 -540 Descending New York TRACON
08:22AM 41.0833 -74.1667 114° Southeast 300 345 3,100 -540 Descending New York TRACON
08:23AM 41.0333 -74.0833 128° Southeast 300 345 2,400 -600 Descending New York TRACON
08:24AM 40.9667 -74.0500 159° South 243 280 2,000 -480 Descending New York TRACON
08:25AM 40.9167 -74.0500 180° South 181 208 1,600 -720 Descending New York TRACON
08:26AM 40.8833 -74.0333 159° South 142 163 700 -900 Descending New York TRACON
08:28AM 40.8500 -74.0500 156° South  Level FlightAware Approximate
08:35AM 40.8501 -74.0608 156° South  Level Estimated
08:36AM 40.8501 -74.0608 156° South  Level Estimated